Terminal Aerodrome Forecast
Issued by NWS Anchorage, AK

Home | Current Version | Previous Version | Text Only | Print | Product List | Glossary On
Versions: 1 2 3 4 5 6 7 8 9 10 11 12 13 14 15 16 17 18 19 20 21 22 23 24 25 26 27 28
000
FTAK31 PANC 192341
TAFANC
TAF
PANC 192341Z 2000/2106 36009KT 4SM -SN BR SCT015 OVC035
      TEMPO 2000/2002 2SM -SN BR BKN020
     FM200200 36009KT 6SM -SN SCT020 OVC040
     FM200400 01009KT P6SM FEW020 OVC050
     FM200700 36010KT P6SM FEW050 BKN120
     FM201800 36012G20KT P6SM SKC
     FM210200 01008KT P6SM SKC=

USA.gov is the U.S. government's official web portal to all federal, state and local government web resources and services.